sensor_id;sensor_type;location;lat;lon;timestamp;P1;durP1;ratioP1;P2;durP2;ratioP2
12437;SDS011;6283;51.330;12.374;2023-09-07T00:01:05;5.85;;;5.20;;
12437;SDS011;6283;51.330;12.374;2023-09-07T00:03:31;6.03;;;5.13;;
12437;SDS011;6283;51.330;12.374;2023-09-07T00:05:57;6.40;;;4.43;;
12437;SDS011;6283;51.330;12.374;2023-09-07T00:08:23;8.63;;;5.35;;
12437;SDS011;6283;51.330;12.374;2023-09-07T00:10:50;5.03;;;4.25;;
12437;SDS011;6283;51.330;12.374;2023-09-07T00:13:16;4.97;;;4.38;;
12437;SDS011;6283;51.330;12.374;2023-09-07T00:15:42;5.95;;;3.90;;
12437;SDS011;6283;51.330;12.374;2023-09-07T00:18:08;5.75;;;4.28;;
12437;SDS011;6283;51.330;12.374;2023-09-07T00:20:34;5.90;;;4.30;;
12437;SDS011;6283;51.330;12.374;2023-09-07T00:23:00;5.00;;;4.25;;
12437;SDS011;6283;51.330;12.374;2023-09-07T00:25:26;4.63;;;4.18;;
12437;SDS011;6283;51.330;12.374;2023-09-07T00:27:52;6.53;;;4.22;;
12437;SDS011;6283;51.330;12.374;2023-09-07T00:30:18;4.30;;;3.80;;
12437;SDS011;6283;51.330;12.374;2023-09-07T00:32:43;5.18;;;4.25;;
12437;SDS011;6283;51.330;12.374;2023-09-07T00:35:09;4.38;;;4.00;;
12437;SDS011;6283;51.330;12.374;2023-09-07T00:37:35;5.30;;;4.18;;
12437;SDS011;6283;51.330;12.374;2023-09-07T00:40:01;6.03;;;4.35;;
12437;SDS011;6283;51.330;12.374;2023-09-07T00:42:28;6.40;;;4.30;;
12437;SDS011;6283;51.330;12.374;2023-09-07T00:44:54;4.50;;;4.10;;
12437;SDS011;6283;51.330;12.374;2023-09-07T00:47:20;5.65;;;4.20;;
12437;SDS011;6283;51.330;12.374;2023-09-07T00:49:46;4.15;;;3.83;;
12437;SDS011;6283;51.330;12.374;2023-09-07T00:52:12;7.45;;;4.30;;
12437;SDS011;6283;51.330;12.374;2023-09-07T00:54:37;4.65;;;4.25;;
12437;SDS011;6283;51.330;12.374;2023-09-07T00:57:05;6.43;;;4.35;;
12437;SDS011;6283;51.330;12.374;2023-09-07T00:59:32;4.88;;;4.38;;
12437;SDS011;6283;51.330;12.374;2023-09-07T01:01:58;5.03;;;4.63;;
12437;SDS011;6283;51.330;12.374;2023-09-07T01:04:24;5.82;;;4.38;;
12437;SDS011;6283;51.330;12.374;2023-09-07T01:06:56;4.97;;;4.47;;
12437;SDS011;6283;51.330;12.374;2023-09-07T01:09:26;3.95;;;3.55;;
12437;SDS011;6283;51.330;12.374;2023-09-07T01:11:55;5.85;;;4.65;;
12437;SDS011;6283;51.330;12.374;2023-09-07T01:14:21;5.28;;;4.55;;
12437;SDS011;6283;51.330;12.374;2023-09-07T01:16:47;7.75;;;5.15;;
12437;SDS011;6283;51.330;12.374;2023-09-07T01:19:15;5.22;;;4.47;;
12437;SDS011;6283;51.330;12.374;2023-09-07T01:21:40;5.05;;;4.50;;
12437;SDS011;6283;51.330;12.374;2023-09-07T01:24:08;5.53;;;4.88;;
12437;SDS011;6283;51.330;12.374;2023-09-07T01:26:34;6.25;;;4.78;;
12437;SDS011;6283;51.330;12.374;2023-09-07T01:29:04;5.35;;;4.82;;
12437;SDS011;6283;51.330;12.374;2023-09-07T01:31:30;5.70;;;4.75;;
12437;SDS011;6283;51.330;12.374;2023-09-07T01:33:55;5.30;;;4.80;;
12437;SDS011;6283;51.330;12.374;2023-09-07T01:36:21;5.45;;;4.95;;
12437;SDS011;6283;51.330;12.374;2023-09-07T01:38:47;8.10;;;5.35;;
12437;SDS011;6283;51.330;12.374;2023-09-07T01:41:12;6.13;;;5.30;;
12437;SDS011;6283;51.330;12.374;2023-09-07T01:43:38;6.93;;;5.75;;
12437;SDS011;6283;51.330;12.374;2023-09-07T01:46:04;7.45;;;5.05;;
12437;SDS011;6283;51.330;12.374;2023-09-07T01:48:29;8.48;;;5.35;;
12437;SDS011;6283;51.330;12.374;2023-09-07T01:50:55;5.78;;;5.18;;
12437;SDS011;6283;51.330;12.374;2023-09-07T01:53:20;6.18;;;5.55;;
12437;SDS011;6283;51.330;12.374;2023-09-07T01:55:46;5.60;;;5.10;;
12437;SDS011;6283;51.330;12.374;2023-09-07T01:58:12;6.38;;;5.30;;
12437;SDS011;6283;51.330;12.374;2023-09-07T02:00:38;6.03;;;5.38;;
12437;SDS011;6283;51.330;12.374;2023-09-07T02:03:05;8.57;;;5.05;;
12437;SDS011;6283;51.330;12.374;2023-09-07T02:05:30;5.68;;;4.80;;
12437;SDS011;6283;51.330;12.374;2023-09-07T02:07:57;5.57;;;5.07;;
12437;SDS011;6283;51.330;12.374;2023-09-07T02:10:23;8.85;;;5.47;;
12437;SDS011;6283;51.330;12.374;2023-09-07T02:12:49;7.75;;;6.70;;
12437;SDS011;6283;51.330;12.374;2023-09-07T02:15:15;5.50;;;5.00;;
12437;SDS011;6283;51.330;12.374;2023-09-07T02:17:40;5.35;;;4.85;;
12437;SDS011;6283;51.330;12.374;2023-09-07T02:20:09;9.05;;;4.90;;
12437;SDS011;6283;51.330;12.374;2023-09-07T02:22:36;5.78;;;5.20;;
12437;SDS011;6283;51.330;12.374;2023-09-07T02:25:02;6.22;;;5.05;;
12437;SDS011;6283;51.330;12.374;2023-09-07T02:27:30;6.03;;;5.43;;
12437;SDS011;6283;51.330;12.374;2023-09-07T02:29:57;10.20;;;6.55;;
12437;SDS011;6283;51.330;12.374;2023-09-07T02:32:22;5.78;;;5.18;;
12437;SDS011;6283;51.330;12.374;2023-09-07T02:34:48;5.82;;;5.32;;
12437;SDS011;6283;51.330;12.374;2023-09-07T02:37:13;7.10;;;5.10;;
12437;SDS011;6283;51.330;12.374;2023-09-07T02:39:41;7.85;;;5.50;;
12437;SDS011;6283;51.330;12.374;2023-09-07T02:42:07;6.30;;;5.32;;
12437;SDS011;6283;51.330;12.374;2023-09-07T02:44:33;6.00;;;5.40;;
12437;SDS011;6283;51.330;12.374;2023-09-07T02:46:58;7.75;;;5.22;;
12437;SDS011;6283;51.330;12.374;2023-09-07T02:49:24;5.93;;;5.43;;
12437;SDS011;6283;51.330;12.374;2023-09-07T02:51:49;6.57;;;5.93;;
12437;SDS011;6283;51.330;12.374;2023-09-07T02:54:15;7.90;;;5.72;;
12437;SDS011;6283;51.330;12.374;2023-09-07T02:56:41;8.02;;;5.05;;
12437;SDS011;6283;51.330;12.374;2023-09-07T02:59:06;6.47;;;5.78;;
12437;SDS011;6283;51.330;12.374;2023-09-07T03:01:32;6.25;;;5.47;;
12437;SDS011;6283;51.330;12.374;2023-09-07T03:03:57;9.50;;;5.85;;
12437;SDS011;6283;51.330;12.374;2023-09-07T03:06:23;7.18;;;6.47;;
12437;SDS011;6283;51.330;12.374;2023-09-07T03:08:48;7.53;;;6.13;;
12437;SDS011;6283;51.330;12.374;2023-09-07T03:11:14;6.72;;;5.45;;
12437;SDS011;6283;51.330;12.374;2023-09-07T03:13:40;8.55;;;6.07;;
12437;SDS011;6283;51.330;12.374;2023-09-07T03:16:07;7.20;;;6.25;;
12437;SDS011;6283;51.330;12.374;2023-09-07T03:18:33;6.68;;;5.97;;
12437;SDS011;6283;51.330;12.374;2023-09-07T03:20:59;9.88;;;5.70;;
12437;SDS011;6283;51.330;12.374;2023-09-07T03:23:27;7.53;;;6.10;;
12437;SDS011;6283;51.330;12.374;2023-09-07T03:25:53;6.40;;;5.78;;
12437;SDS011;6283;51.330;12.374;2023-09-07T03:28:19;7.60;;;5.25;;
12437;SDS011;6283;51.330;12.374;2023-09-07T03:30:44;7.32;;;6.03;;
12437;SDS011;6283;51.330;12.374;2023-09-07T03:33:10;7.45;;;5.68;;
12437;SDS011;6283;51.330;12.374;2023-09-07T03:35:35;6.47;;;5.32;;
12437;SDS011;6283;51.330;12.374;2023-09-07T03:38:02;7.75;;;5.85;;
12437;SDS011;6283;51.330;12.374;2023-09-07T03:40:28;7.75;;;5.38;;
12437;SDS011;6283;51.330;12.374;2023-09-07T03:42:54;6.57;;;5.85;;
12437;SDS011;6283;51.330;12.374;2023-09-07T03:45:20;7.85;;;5.82;;
12437;SDS011;6283;51.330;12.374;2023-09-07T03:47:45;6.93;;;6.20;;
12437;SDS011;6283;51.330;12.374;2023-09-07T03:50:11;7.85;;;6.22;;
12437;SDS011;6283;51.330;12.374;2023-09-07T03:52:36;6.93;;;5.85;;
12437;SDS011;6283;51.330;12.374;2023-09-07T03:55:02;7.93;;;6.38;;
12437;SDS011;6283;51.330;12.374;2023-09-07T03:57:28;7.15;;;6.45;;
12437;SDS011;6283;51.330;12.374;2023-09-07T03:59:54;8.70;;;6.65;;
12437;SDS011;6283;51.330;12.374;2023-09-07T04:02:21;8.80;;;5.60;;
12437;SDS011;6283;51.330;12.374;2023-09-07T04:04:53;9.05;;;6.70;;
12437;SDS011;6283;51.330;12.374;2023-09-07T04:07:22;9.68;;;6.22;;
12437;SDS011;6283;51.330;12.374;2023-09-07T04:09:49;6.47;;;5.82;;
12437;SDS011;6283;51.330;12.374;2023-09-07T04:12:15;7.03;;;6.20;;
12437;SDS011;6283;51.330;12.374;2023-09-07T04:14:41;7.57;;;6.32;;
12437;SDS011;6283;51.330;12.374;2023-09-07T04:17:07;7.18;;;5.55;;
12437;SDS011;6283;51.330;12.374;2023-09-07T04:19:33;6.95;;;5.93;;
12437;SDS011;6283;51.330;12.374;2023-09-07T04:21:58;8.32;;;6.28;;
12437;SDS011;6283;51.330;12.374;2023-09-07T04:24:25;7.60;;;6.32;;
12437;SDS011;6283;51.330;12.374;2023-09-07T04:26:52;8.45;;;6.25;;
12437;SDS011;6283;51.330;12.374;2023-09-07T04:29:18;8.07;;;6.85;;
12437;SDS011;6283;51.330;12.374;2023-09-07T04:31:44;7.45;;;6.63;;
12437;SDS011;6283;51.330;12.374;2023-09-07T04:34:09;8.57;;;6.53;;
12437;SDS011;6283;51.330;12.374;2023-09-07T04:36:35;9.70;;;7.35;;
12437;SDS011;6283;51.330;12.374;2023-09-07T04:39:01;8.15;;;6.50;;
12437;SDS011;6283;51.330;12.374;2023-09-07T04:41:28;7.38;;;6.20;;
12437;SDS011;6283;51.330;12.374;2023-09-07T04:43:54;8.65;;;7.32;;
12437;SDS011;6283;51.330;12.374;2023-09-07T04:46:21;14.13;;;6.70;;
12437;SDS011;6283;51.330;12.374;2023-09-07T04:48:48;12.55;;;7.38;;
12437;SDS011;6283;51.330;12.374;2023-09-07T04:51:14;7.70;;;6.93;;
12437;SDS011;6283;51.330;12.374;2023-09-07T04:53:39;10.88;;;7.05;;
12437;SDS011;6283;51.330;12.374;2023-09-07T04:56:06;8.48;;;6.80;;
12437;SDS011;6283;51.330;12.374;2023-09-07T04:58:35;7.70;;;5.88;;
12437;SDS011;6283;51.330;12.374;2023-09-07T05:01:01;7.40;;;6.30;;
12437;SDS011;6283;51.330;12.374;2023-09-07T05:03:31;7.25;;;6.28;;
12437;SDS011;6283;51.330;12.374;2023-09-07T05:05:57;7.32;;;6.55;;
12437;SDS011;6283;51.330;12.374;2023-09-07T05:08:23;11.98;;;8.18;;
12437;SDS011;6283;51.330;12.374;2023-09-07T05:10:55;8.98;;;7.45;;
12437;SDS011;6283;51.330;12.374;2023-09-07T05:13:22;8.88;;;7.55;;
12437;SDS011;6283;51.330;12.374;2023-09-07T05:15:48;9.30;;;7.65;;
12437;SDS011;6283;51.330;12.374;2023-09-07T05:18:16;8.38;;;7.15;;
12437;SDS011;6283;51.330;12.374;2023-09-07T05:20:42;8.57;;;7.57;;
12437;SDS011;6283;51.330;12.374;2023-09-07T05:23:10;9.75;;;7.43;;
12437;SDS011;6283;51.330;12.374;2023-09-07T05:25:47;8.48;;;7.60;;
12437;SDS011;6283;51.330;12.374;2023-09-07T05:28:17;9.43;;;7.50;;
12437;SDS011;6283;51.330;12.374;2023-09-07T05:30:44;9.98;;;7.80;;
12437;SDS011;6283;51.330;12.374;2023-09-07T05:33:10;9.45;;;8.43;;
12437;SDS011;6283;51.330;12.374;2023-09-07T05:35:36;9.50;;;7.55;;
12437;SDS011;6283;51.330;12.374;2023-09-07T05:38:02;10.73;;;7.95;;
12437;SDS011;6283;51.330;12.374;2023-09-07T05:40:29;8.90;;;7.78;;
12437;SDS011;6283;51.330;12.374;2023-09-07T05:42:58;10.48;;;8.15;;
12437;SDS011;6283;51.330;12.374;2023-09-07T05:45:24;10.13;;;7.85;;
12437;SDS011;6283;51.330;12.374;2023-09-07T05:47:50;10.20;;;7.82;;
12437;SDS011;6283;51.330;12.374;2023-09-07T05:50:16;9.02;;;8.07;;
12437;SDS011;6283;51.330;12.374;2023-09-07T05:52:41;9.50;;;7.40;;
12437;SDS011;6283;51.330;12.374;2023-09-07T05:55:07;8.48;;;7.55;;
12437;SDS011;6283;51.330;12.374;2023-09-07T05:57:33;10.77;;;7.93;;
12437;SDS011;6283;51.330;12.374;2023-09-07T05:59:58;10.95;;;8.07;;
12437;SDS011;6283;51.330;12.374;2023-09-07T06:02:24;10.75;;;7.75;;
12437;SDS011;6283;51.330;12.374;2023-09-07T06:04:50;8.25;;;7.45;;
12437;SDS011;6283;51.330;12.374;2023-09-07T06:07:15;9.75;;;6.95;;
12437;SDS011;6283;51.330;12.374;2023-09-07T06:09:41;12.23;;;7.57;;
12437;SDS011;6283;51.330;12.374;2023-09-07T06:12:06;7.90;;;7.07;;
12437;SDS011;6283;51.330;12.374;2023-09-07T06:14:32;9.05;;;7.15;;
12437;SDS011;6283;51.330;12.374;2023-09-07T06:16:58;10.23;;;7.63;;
12437;SDS011;6283;51.330;12.374;2023-09-07T06:19:23;13.25;;;7.38;;
12437;SDS011;6283;51.330;12.374;2023-09-07T06:21:49;16.38;;;8.32;;
12437;SDS011;6283;51.330;12.374;2023-09-07T06:24:15;12.52;;;8.05;;
12437;SDS011;6283;51.330;12.374;2023-09-07T06:26:40;10.60;;;7.65;;
12437;SDS011;6283;51.330;12.374;2023-09-07T06:29:09;8.75;;;7.10;;
12437;SDS011;6283;51.330;12.374;2023-09-07T06:31:35;8.45;;;6.85;;
12437;SDS011;6283;51.330;12.374;2023-09-07T06:34:00;7.28;;;6.53;;
12437;SDS011;6283;51.330;12.374;2023-09-07T06:36:26;7.85;;;6.78;;
12437;SDS011;6283;51.330;12.374;2023-09-07T06:38:51;9.50;;;7.40;;
12437;SDS011;6283;51.330;12.374;2023-09-07T06:41:17;7.40;;;6.70;;
12437;SDS011;6283;51.330;12.374;2023-09-07T06:43:42;7.82;;;6.22;;
12437;SDS011;6283;51.330;12.374;2023-09-07T06:46:08;6.70;;;5.95;;
12437;SDS011;6283;51.330;12.374;2023-09-07T06:48:34;10.02;;;6.40;;
12437;SDS011;6283;51.330;12.374;2023-09-07T06:51:01;7.78;;;5.85;;
12437;SDS011;6283;51.330;12.374;2023-09-07T06:53:28;7.70;;;6.13;;
12437;SDS011;6283;51.330;12.374;2023-09-07T06:55:57;6.85;;;6.05;;
12437;SDS011;6283;51.330;12.374;2023-09-07T06:58:27;9.68;;;6.05;;
12437;SDS011;6283;51.330;12.374;2023-09-07T07:00:57;6.82;;;5.53;;
12437;SDS011;6283;51.330;12.374;2023-09-07T07:03:29;9.60;;;6.85;;
12437;SDS011;6283;51.330;12.374;2023-09-07T07:05:55;6.40;;;5.72;;
12437;SDS011;6283;51.330;12.374;2023-09-07T07:08:21;7.15;;;5.05;;
12437;SDS011;6283;51.330;12.374;2023-09-07T07:10:48;9.13;;;5.70;;
12437;SDS011;6283;51.330;12.374;2023-09-07T07:13:13;5.82;;;5.22;;
12437;SDS011;6283;51.330;12.374;2023-09-07T07:15:39;6.03;;;5.00;;
12437;SDS011;6283;51.330;12.374;2023-09-07T07:18:05;6.15;;;5.38;;
12437;SDS011;6283;51.330;12.374;2023-09-07T07:20:37;6.50;;;5.00;;
12437;SDS011;6283;51.330;12.374;2023-09-07T07:23:03;5.57;;;4.78;;
12437;SDS011;6283;51.330;12.374;2023-09-07T07:25:31;6.10;;;4.72;;
12437;SDS011;6283;51.330;12.374;2023-09-07T07:27:58;6.20;;;5.18;;
12437;SDS011;6283;51.330;12.374;2023-09-07T07:30:36;5.35;;;4.80;;
12437;SDS011;6283;51.330;12.374;2023-09-07T07:33:03;5.90;;;5.38;;
12437;SDS011;6283;51.330;12.374;2023-09-07T07:35:30;8.68;;;4.97;;
12437;SDS011;6283;51.330;12.374;2023-09-07T07:37:56;5.75;;;4.60;;
12437;SDS011;6283;51.330;12.374;2023-09-07T07:40:21;7.38;;;5.47;;
12437;SDS011;6283;51.330;12.374;2023-09-07T07:42:47;7.05;;;5.30;;
12437;SDS011;6283;51.330;12.374;2023-09-07T07:45:13;5.55;;;4.90;;
12437;SDS011;6283;51.330;12.374;2023-09-07T07:47:40;6.10;;;4.72;;
12437;SDS011;6283;51.330;12.374;2023-09-07T07:50:06;6.43;;;4.70;;
12437;SDS011;6283;51.330;12.374;2023-09-07T07:52:32;4.93;;;4.43;;
12437;SDS011;6283;51.330;12.374;2023-09-07T07:54:59;5.03;;;4.53;;
12437;SDS011;6283;51.330;12.374;2023-09-07T07:57:27;6.47;;;5.20;;
12437;SDS011;6283;51.330;12.374;2023-09-07T07:59:55;5.03;;;4.60;;
12437;SDS011;6283;51.330;12.374;2023-09-07T08:02:21;10.45;;;5.95;;
12437;SDS011;6283;51.330;12.374;2023-09-07T08:04:47;6.30;;;4.82;;
12437;SDS011;6283;51.330;12.374;2023-09-07T08:07:12;5.13;;;4.63;;
12437;SDS011;6283;51.330;12.374;2023-09-07T08:09:38;4.40;;;4.10;;
12437;SDS011;6283;51.330;12.374;2023-09-07T08:12:04;5.65;;;4.30;;
12437;SDS011;6283;51.330;12.374;2023-09-07T08:14:31;9.77;;;4.88;;
12437;SDS011;6283;51.330;12.374;2023-09-07T08:16:57;5.22;;;4.63;;
12437;SDS011;6283;51.330;12.374;2023-09-07T08:19:23;9.52;;;5.28;;
12437;SDS011;6283;51.330;12.374;2023-09-07T08:21:49;6.32;;;4.95;;
12437;SDS011;6283;51.330;12.374;2023-09-07T08:24:15;9.32;;;5.18;;
12437;SDS011;6283;51.330;12.374;2023-09-07T08:26:41;7.60;;;4.90;;
12437;SDS011;6283;51.330;12.374;2023-09-07T08:29:07;5.00;;;4.53;;
12437;SDS011;6283;51.330;12.374;2023-09-07T08:31:36;5.65;;;4.45;;
12437;SDS011;6283;51.330;12.374;2023-09-07T08:34:04;8.48;;;4.53;;
12437;SDS011;6283;51.330;12.374;2023-09-07T08:36:31;7.68;;;4.80;;
12437;SDS011;6283;51.330;12.374;2023-09-07T08:38:59;7.32;;;5.00;;
12437;SDS011;6283;51.330;12.374;2023-09-07T08:41:36;6.32;;;4.80;;
12437;SDS011;6283;51.330;12.374;2023-09-07T08:44:17;5.53;;;4.80;;
12437;SDS011;6283;51.330;12.374;2023-09-07T08:46:44;8.00;;;4.70;;
12437;SDS011;6283;51.330;12.374;2023-09-07T08:49:10;5.13;;;4.53;;
12437;SDS011;6283;51.330;12.374;2023-09-07T08:51:36;5.30;;;4.10;;
12437;SDS011;6283;51.330;12.374;2023-09-07T08:54:03;4.93;;;4.43;;
12437;SDS011;6283;51.330;12.374;2023-09-07T08:56:32;5.88;;;4.57;;
12437;SDS011;6283;51.330;12.374;2023-09-07T08:58:58;5.38;;;4.50;;
12437;SDS011;6283;51.330;12.374;2023-09-07T09:01:24;5.47;;;4.63;;
12437;SDS011;6283;51.330;12.374;2023-09-07T09:03:50;6.35;;;4.68;;
12437;SDS011;6283;51.330;12.374;2023-09-07T09:06:16;5.00;;;4.57;;
12437;SDS011;6283;51.330;12.374;2023-09-07T09:08:48;7.53;;;4.50;;
12437;SDS011;6283;51.330;12.374;2023-09-07T09:11:15;6.22;;;4.57;;
12437;SDS011;6283;51.330;12.374;2023-09-07T09:13:41;6.20;;;4.80;;
12437;SDS011;6283;51.330;12.374;2023-09-07T09:16:08;5.53;;;4.85;;
12437;SDS011;6283;51.330;12.374;2023-09-07T09:18:34;7.00;;;5.00;;
12437;SDS011;6283;51.330;12.374;2023-09-07T09:21:00;5.35;;;4.55;;
12437;SDS011;6283;51.330;12.374;2023-09-07T09:23:32;4.60;;;4.07;;
12437;SDS011;6283;51.330;12.374;2023-09-07T09:25:59;6.40;;;4.22;;
12437;SDS011;6283;51.330;12.374;2023-09-07T09:28:26;6.57;;;4.63;;
12437;SDS011;6283;51.330;12.374;2023-09-07T09:30:52;5.50;;;4.22;;
12437;SDS011;6283;51.330;12.374;2023-09-07T09:33:22;4.07;;;3.67;;
12437;SDS011;6283;51.330;12.374;2023-09-07T09:35:48;5.53;;;4.43;;
12437;SDS011;6283;51.330;12.374;2023-09-07T09:38:15;4.72;;;4.05;;
12437;SDS011;6283;51.330;12.374;2023-09-07T09:40:42;7.32;;;4.78;;
12437;SDS011;6283;51.330;12.374;2023-09-07T09:43:08;4.18;;;3.70;;
12437;SDS011;6283;51.330;12.374;2023-09-07T09:45:35;6.25;;;4.18;;
12437;SDS011;6283;51.330;12.374;2023-09-07T09:48:01;5.85;;;4.53;;
12437;SDS011;6283;51.330;12.374;2023-09-07T09:50:28;5.10;;;4.43;;
12437;SDS011;6283;51.330;12.374;2023-09-07T09:52:54;5.10;;;4.60;;
12437;SDS011;6283;51.330;12.374;2023-09-07T09:55:21;5.32;;;4.70;;
12437;SDS011;6283;51.330;12.374;2023-09-07T09:57:47;5.57;;;4.80;;
12437;SDS011;6283;51.330;12.374;2023-09-07T10:00:13;5.80;;;5.03;;
12437;SDS011;6283;51.330;12.374;2023-09-07T10:02:42;21.15;;;7.18;;
12437;SDS011;6283;51.330;12.374;2023-09-07T10:05:10;10.50;;;5.28;;
12437;SDS011;6283;51.330;12.374;2023-09-07T10:07:45;8.75;;;5.05;;
12437;SDS011;6283;51.330;12.374;2023-09-07T10:10:14;5.85;;;4.78;;
12437;SDS011;6283;51.330;12.374;2023-09-07T10:12:43;7.18;;;5.15;;
12437;SDS011;6283;51.330;12.374;2023-09-07T10:15:19;4.80;;;4.05;;
12437;SDS011;6283;51.330;12.374;2023-09-07T10:17:46;7.13;;;4.30;;
12437;SDS011;6283;51.330;12.374;2023-09-07T10:20:15;5.18;;;4.18;;
12437;SDS011;6283;51.330;12.374;2023-09-07T10:22:42;5.78;;;4.25;;
12437;SDS011;6283;51.330;12.374;2023-09-07T10:25:17;4.65;;;3.70;;
12437;SDS011;6283;51.330;12.374;2023-09-07T10:27:46;5.85;;;4.30;;
12437;SDS011;6283;51.330;12.374;2023-09-07T10:30:12;5.30;;;4.80;;
12437;SDS011;6283;51.330;12.374;2023-09-07T10:32:41;4.78;;;4.25;;
12437;SDS011;6283;51.330;12.374;2023-09-07T10:35:14;7.80;;;4.40;;
12437;SDS011;6283;51.330;12.374;2023-09-07T10:37:41;4.72;;;3.92;;
12437;SDS011;6283;51.330;12.374;2023-09-07T10:40:10;4.53;;;3.85;;
12437;SDS011;6283;51.330;12.374;2023-09-07T10:42:37;5.78;;;4.38;;
12437;SDS011;6283;51.330;12.374;2023-09-07T10:45:12;5.22;;;4.40;;
12437;SDS011;6283;51.330;12.374;2023-09-07T10:47:44;6.93;;;5.00;;
12437;SDS011;6283;51.330;12.374;2023-09-07T10:50:13;5.07;;;4.10;;
12437;SDS011;6283;51.330;12.374;2023-09-07T10:52:40;6.18;;;4.10;;
12437;SDS011;6283;51.330;12.374;2023-09-07T10:55:07;5.10;;;3.97;;
12437;SDS011;6283;51.330;12.374;2023-09-07T10:57:45;5.45;;;4.35;;
12437;SDS011;6283;51.330;12.374;2023-09-07T11:00:12;4.10;;;3.70;;
12437;SDS011;6283;51.330;12.374;2023-09-07T11:02:39;4.35;;;3.95;;
12437;SDS011;6283;51.330;12.374;2023-09-07T11:05:06;4.20;;;3.90;;
12437;SDS011;6283;51.330;12.374;2023-09-07T11:07:32;5.47;;;4.25;;
12437;SDS011;6283;51.330;12.374;2023-09-07T11:09:59;4.30;;;3.65;;
12437;SDS011;6283;51.330;12.374;2023-09-07T11:12:25;5.05;;;4.00;;
12437;SDS011;6283;51.330;12.374;2023-09-07T11:14:51;8.18;;;4.10;;
12437;SDS011;6283;51.330;12.374;2023-09-07T11:17:18;5.47;;;3.92;;
12437;SDS011;6283;51.330;12.374;2023-09-07T11:19:44;3.85;;;3.55;;
12437;SDS011;6283;51.330;12.374;2023-09-07T11:22:10;4.30;;;3.42;;
12437;SDS011;6283;51.330;12.374;2023-09-07T11:24:36;3.58;;;3.08;;
12437;SDS011;6283;51.330;12.374;2023-09-07T11:27:02;4.43;;;3.78;;
12437;SDS011;6283;51.330;12.374;2023-09-07T11:29:30;5.03;;;3.33;;
12437;SDS011;6283;51.330;12.374;2023-09-07T11:32:10;5.75;;;3.58;;
12437;SDS011;6283;51.330;12.374;2023-09-07T11:34:57;3.92;;;3.33;;
12437;SDS011;6283;51.330;12.374;2023-09-07T11:37:23;4.00;;;3.60;;
12437;SDS011;6283;51.330;12.374;2023-09-07T11:39:50;3.67;;;3.38;;
12437;SDS011;6283;51.330;12.374;2023-09-07T11:42:16;5.03;;;3.63;;
12437;SDS011;6283;51.330;12.374;2023-09-07T11:44:41;3.88;;;3.58;;
12437;SDS011;6283;51.330;12.374;2023-09-07T11:47:07;4.30;;;3.90;;
12437;SDS011;6283;51.330;12.374;2023-09-07T11:49:33;4.25;;;3.88;;
12437;SDS011;6283;51.330;12.374;2023-09-07T11:51:59;4.22;;;3.90;;
12437;SDS011;6283;51.330;12.374;2023-09-07T11:54:24;4.20;;;3.83;;
12437;SDS011;6283;51.330;12.374;2023-09-07T11:56:50;5.13;;;4.07;;
12437;SDS011;6283;51.330;12.374;2023-09-07T11:59:15;4.22;;;3.58;;
12437;SDS011;6283;51.330;12.374;2023-09-07T12:01:44;6.45;;;4.20;;
12437;SDS011;6283;51.330;12.374;2023-09-07T12:04:09;5.45;;;3.88;;
12437;SDS011;6283;51.330;12.374;2023-09-07T12:06:35;5.03;;;3.83;;
12437;SDS011;6283;51.330;12.374;2023-09-07T12:09:05;7.22;;;6.53;;
12437;SDS011;6283;51.330;12.374;2023-09-07T12:11:32;4.00;;;3.70;;
12437;SDS011;6283;51.330;12.374;2023-09-07T12:13:58;3.97;;;3.58;;
12437;SDS011;6283;51.330;12.374;2023-09-07T12:16:28;6.90;;;4.95;;
12437;SDS011;6283;51.330;12.374;2023-09-07T12:18:54;5.55;;;4.10;;
12437;SDS011;6283;51.330;12.374;2023-09-07T12:21:20;6.35;;;4.20;;
12437;SDS011;6283;51.330;12.374;2023-09-07T12:23:45;4.07;;;3.70;;
12437;SDS011;6283;51.330;12.374;2023-09-07T12:26:14;4.03;;;3.70;;
12437;SDS011;6283;51.330;12.374;2023-09-07T12:28:41;4.82;;;3.75;;
12437;SDS011;6283;51.330;12.374;2023-09-07T12:31:07;4.70;;;3.80;;
12437;SDS011;6283;51.330;12.374;2023-09-07T12:33:33;4.82;;;3.47;;
12437;SDS011;6283;51.330;12.374;2023-09-07T12:35:59;4.35;;;4.00;;
12437;SDS011;6283;51.330;12.374;2023-09-07T12:38:25;5.07;;;4.13;;
12437;SDS011;6283;51.330;12.374;2023-09-07T12:40:53;3.90;;;3.42;;
12437;SDS011;6283;51.330;12.374;2023-09-07T12:43:19;5.93;;;3.47;;
12437;SDS011;6283;51.330;12.374;2023-09-07T12:45:45;3.90;;;3.50;;
12437;SDS011;6283;51.330;12.374;2023-09-07T12:48:11;3.97;;;3.60;;
12437;SDS011;6283;51.330;12.374;2023-09-07T12:50:37;4.40;;;4.00;;
12437;SDS011;6283;51.330;12.374;2023-09-07T12:53:04;4.97;;;3.55;;
12437;SDS011;6283;51.330;12.374;2023-09-07T12:55:30;3.95;;;3.65;;
12437;SDS011;6283;51.330;12.374;2023-09-07T12:57:55;3.28;;;3.08;;
12437;SDS011;6283;51.330;12.374;2023-09-07T13:00:21;4.35;;;3.97;;
12437;SDS011;6283;51.330;12.374;2023-09-07T13:02:47;4.72;;;3.70;;
12437;SDS011;6283;51.330;12.374;2023-09-07T13:05:12;4.28;;;3.88;;
12437;SDS011;6283;51.330;12.374;2023-09-07T13:07:38;4.03;;;3.72;;
12437;SDS011;6283;51.330;12.374;2023-09-07T13:10:05;7.93;;;4.28;;
12437;SDS011;6283;51.330;12.374;2023-09-07T13:12:31;3.70;;;3.40;;
12437;SDS011;6283;51.330;12.374;2023-09-07T13:14:57;5.15;;;3.40;;
12437;SDS011;6283;51.330;12.374;2023-09-07T13:17:23;4.03;;;3.63;;
12437;SDS011;6283;51.330;12.374;2023-09-07T13:19:49;4.18;;;3.50;;
12437;SDS011;6283;51.330;12.374;2023-09-07T13:22:14;4.60;;;3.53;;
12437;SDS011;6283;51.330;12.374;2023-09-07T13:24:42;4.13;;;3.28;;
12437;SDS011;6283;51.330;12.374;2023-09-07T13:27:07;4.45;;;3.17;;
12437;SDS011;6283;51.330;12.374;2023-09-07T13:29:35;5.13;;;3.90;;
12437;SDS011;6283;51.330;12.374;2023-09-07T13:32:01;4.07;;;3.33;;
12437;SDS011;6283;51.330;12.374;2023-09-07T13:34:27;4.47;;;3.33;;
12437;SDS011;6283;51.330;12.374;2023-09-07T13:36:52;4.45;;;3.63;;
12437;SDS011;6283;51.330;12.374;2023-09-07T13:39:18;3.70;;;3.38;;
12437;SDS011;6283;51.330;12.374;2023-09-07T13:41:44;4.10;;;3.70;;
12437;SDS011;6283;51.330;12.374;2023-09-07T13:44:11;4.65;;;3.90;;
12437;SDS011;6283;51.330;12.374;2023-09-07T13:46:36;4.03;;;3.63;;
12437;SDS011;6283;51.330;12.374;2023-09-07T13:49:02;3.63;;;3.38;;
12437;SDS011;6283;51.330;12.374;2023-09-07T13:51:28;5.38;;;4.03;;
12437;SDS011;6283;51.330;12.374;2023-09-07T13:53:56;3.63;;;3.33;;
12437;SDS011;6283;51.330;12.374;2023-09-07T13:56:22;3.88;;;3.50;;
12437;SDS011;6283;51.330;12.374;2023-09-07T13:58:47;7.45;;;3.53;;
12437;SDS011;6283;51.330;12.374;2023-09-07T14:01:13;5.45;;;3.78;;
12437;SDS011;6283;51.330;12.374;2023-09-07T14:03:39;4.50;;;3.75;;
12437;SDS011;6283;51.330;12.374;2023-09-07T14:06:04;3.95;;;3.67;;
12437;SDS011;6283;51.330;12.374;2023-09-07T14:08:30;4.18;;;3.30;;
12437;SDS011;6283;51.330;12.374;2023-09-07T14:10:58;4.00;;;3.65;;
12437;SDS011;6283;51.330;12.374;2023-09-07T14:13:23;4.82;;;3.88;;
12437;SDS011;6283;51.330;12.374;2023-09-07T14:15:49;3.97;;;3.67;;
12437;SDS011;6283;51.330;12.374;2023-09-07T14:18:15;4.50;;;4.00;;
12437;SDS011;6283;51.330;12.374;2023-09-07T14:20:41;4.20;;;3.60;;
12437;SDS011;6283;51.330;12.374;2023-09-07T14:23:06;4.13;;;3.72;;
12437;SDS011;6283;51.330;12.374;2023-09-07T14:25:32;5.28;;;4.45;;
12437;SDS011;6283;51.330;12.374;2023-09-07T14:27:58;4.30;;;3.90;;
12437;SDS011;6283;51.330;12.374;2023-09-07T14:30:23;4.25;;;3.90;;
12437;SDS011;6283;51.330;12.374;2023-09-07T14:32:50;3.92;;;3.35;;
12437;SDS011;6283;51.330;12.374;2023-09-07T14:35:15;4.05;;;3.70;;
12437;SDS011;6283;51.330;12.374;2023-09-07T14:37:41;5.50;;;4.10;;
12437;SDS011;6283;51.330;12.374;2023-09-07T14:40:07;4.10;;;3.90;;
12437;SDS011;6283;51.330;12.374;2023-09-07T14:42:33;4.00;;;3.70;;
12437;SDS011;6283;51.330;12.374;2023-09-07T14:44:59;4.70;;;3.75;;